Mason City, IA

7:49 AM CDT on May 28, 2015 (GMT -0500)
NorthWestMasonCity | | Change Station
CLOSE
Current Station
Personal Weather Station
Location: Mason City, IA
Elevation: 1129 ft
Nearby Weather Stations

Elev 1129 ft 43.16 °N, 93.20 °W | Updated 14 seconds ago

Clear
Clear
63.2 °F
Feels Like 63.2 °F
N
6.0
Wind Variable Wind from South
Gusts 11.0 mph

Today
High -- | Low -- °F
--% Chance of Precip.
Yesterday
High -- | Low -- °F
Precip. -- in
5:38 AM 8:42 PM
Waxing Gibbous, 75% visible
Pressure 30.10 in
Visibility 7.0 miles
Clouds Clear
Dew Point 58 °F
Humidity 84%
Rainfall 0.00 in
Snow Depth Not available.
UV 1 out of 12
Pollen 8.20 out of 12
Air Quality Not available.
Flu Activity Sporadic
METAR KMCW 281153Z AUTO 19004KT 7SM CLR 16/14 A3013 RMK AO2 SLP192 T01560139 10167 20133 53008

More Conditions Fewer Conditions

Pressure 30.10 in
Visibility 7.0 miles
Clouds Clear
Dew Point 58 °F
Humidity 84%
Rainfall 0.00 in
Snow Depth Not available.
UV 1 out of 12
Pollen 8.20 out of 12
Air Quality Not available.
Flu Activity Sporadic
METAR KMCW 281153Z AUTO 19004KT 7SM CLR 16/14 A3013 RMK AO2 SLP192 T01560139 10167 20133 53008

More Conditions Fewer Conditions

10-Day Weather Forecast

Almanac

Astronomy

May. 28, 2015 Rise Set
Actual Time
Civil Twilight
Nautical Twilight
Astronomical Twilight
Moon
Length of Visible Light
Length of Day
Tomorrow will be .
, % of the Moon is Illuminated

Today's Extremes

State Highs State Lows

Community

WunderPhotos

Upload Photos

1,824,960 photos uploaded!

WunderBlogs® & News

Nearby

Air Quality

  Air Quality AQ Index Pollutant
Not available.

Snow Depth

Station Depth Elevation

Earthquake Activity

City Distance Mag. Time & Date
Minimum magnitude displayed is 2.5.

Coastal Water Temperatures

Place Temperature

Stations

Nearby Weather Stations

Station Location Temp. Windchill Dew Point Humidity Wind Precip. Elev Updated Type